sensor_id;sensor_type;location;lat;lon;timestamp;temperature;humidity
62583;DHT22;48641;51.676;5.808;2023-02-20T00:01:32;15.90;65.50
62583;DHT22;48641;51.676;5.808;2023-02-20T00:03:58;15.90;65.50
62583;DHT22;48641;51.676;5.808;2023-02-20T00:06:24;15.90;65.50
62583;DHT22;48641;51.676;5.808;2023-02-20T00:08:49;15.90;65.50
62583;DHT22;48641;51.676;5.808;2023-02-20T00:11:15;15.90;65.50
62583;DHT22;48641;51.676;5.808;2023-02-20T00:13:45;15.90;66.50
62583;DHT22;48641;51.676;5.808;2023-02-20T00:16:11;15.90;65.50
62583;DHT22;48641;51.676;5.808;2023-02-20T00:18:37;15.90;65.50
62583;DHT22;48641;51.676;5.808;2023-02-20T00:21:04;15.90;65.60
62583;DHT22;48641;51.676;5.808;2023-02-20T00:23:33;15.90;65.60
62583;DHT22;48641;51.676;5.808;2023-02-20T00:25:58;15.90;65.50
62583;DHT22;48641;51.676;5.808;2023-02-20T00:28:24;15.90;65.60
62583;DHT22;48641;51.676;5.808;2023-02-20T00:30:50;15.90;65.60
62583;DHT22;48641;51.676;5.808;2023-02-20T00:33:16;15.90;65.60
62583;DHT22;48641;51.676;5.808;2023-02-20T00:35:41;15.90;65.50
62583;DHT22;48641;51.676;5.808;2023-02-20T00:38:07;15.90;65.40
62583;DHT22;48641;51.676;5.808;2023-02-20T00:40:33;15.90;65.40
62583;DHT22;48641;51.676;5.808;2023-02-20T00:42:58;15.90;65.40
62583;DHT22;48641;51.676;5.808;2023-02-20T00:45:24;15.90;65.40
62583;DHT22;48641;51.676;5.808;2023-02-20T00:47:49;15.90;65.40
62583;DHT22;48641;51.676;5.808;2023-02-20T00:50:16;15.90;65.40
62583;DHT22;48641;51.676;5.808;2023-02-20T00:52:42;15.90;65.40
62583;DHT22;48641;51.676;5.808;2023-02-20T00:55:08;15.90;65.40
62583;DHT22;48641;51.676;5.808;2023-02-20T00:57:34;15.90;65.40
62583;DHT22;48641;51.676;5.808;2023-02-20T01:00:00;15.90;65.40
62583;DHT22;48641;51.676;5.808;2023-02-20T01:02:25;15.90;65.30
62583;DHT22;48641;51.676;5.808;2023-02-20T01:04:51;15.90;65.30
62583;DHT22;48641;51.676;5.808;2023-02-20T01:07:16;15.90;65.30
62583;DHT22;48641;51.676;5.808;2023-02-20T01:09:42;15.90;65.30
62583;DHT22;48641;51.676;5.808;2023-02-20T01:12:08;15.90;65.40
62583;DHT22;48641;51.676;5.808;2023-02-20T01:14:34;15.80;65.30
62583;DHT22;48641;51.676;5.808;2023-02-20T01:17:00;15.80;65.30
62583;DHT22;48641;51.676;5.808;2023-02-20T01:19:25;15.90;65.40
62583;DHT22;48641;51.676;5.808;2023-02-20T01:21:51;15.90;65.30
62583;DHT22;48641;51.676;5.808;2023-02-20T01:24:17;15.80;65.30
62583;DHT22;48641;51.676;5.808;2023-02-20T01:26:44;15.80;65.30
62583;DHT22;48641;51.676;5.808;2023-02-20T01:29:11;15.80;65.30
62583;DHT22;48641;51.676;5.808;2023-02-20T01:31:36;15.80;65.30
62583;DHT22;48641;51.676;5.808;2023-02-20T01:34:03;15.80;65.40
62583;DHT22;48641;51.676;5.808;2023-02-20T01:36:29;15.80;65.40
62583;DHT22;48641;51.676;5.808;2023-02-20T01:38:55;15.80;65.40
62583;DHT22;48641;51.676;5.808;2023-02-20T01:41:22;15.70;65.30
62583;DHT22;48641;51.676;5.808;2023-02-20T01:43:48;15.80;65.40
62583;DHT22;48641;51.676;5.808;2023-02-20T01:48:49;15.80;65.40
62583;DHT22;48641;51.676;5.808;2023-02-20T01:51:15;15.80;65.40
62583;DHT22;48641;51.676;5.808;2023-02-20T01:53:41;15.80;65.50
62583;DHT22;48641;51.676;5.808;2023-02-20T01:56:08;15.80;65.40
62583;DHT22;48641;51.676;5.808;2023-02-20T01:58:43;15.80;65.40
62583;DHT22;48641;51.676;5.808;2023-02-20T02:01:10;15.90;65.40
62583;DHT22;48641;51.676;5.808;2023-02-20T02:03:39;15.80;65.40
62583;DHT22;48641;51.676;5.808;2023-02-20T02:06:07;15.80;65.40
62583;DHT22;48641;51.676;5.808;2023-02-20T02:08:36;15.90;65.40
62583;DHT22;48641;51.676;5.808;2023-02-20T02:11:06;15.90;65.40
62583;DHT22;48641;51.676;5.808;2023-02-20T02:13:34;15.90;65.40
62583;DHT22;48641;51.676;5.808;2023-02-20T02:16:19;15.90;65.40
62583;DHT22;48641;51.676;5.808;2023-02-20T02:33:55;15.80;65.40
62583;DHT22;48641;51.676;5.808;2023-02-20T02:36:35;15.80;65.30
62583;DHT22;48641;51.676;5.808;2023-02-20T02:39:16;15.80;65.40
62583;DHT22;48641;51.676;5.808;2023-02-20T02:41:53;15.80;65.50
62583;DHT22;48641;51.676;5.808;2023-02-20T02:47:06;15.90;65.40
62583;DHT22;48641;51.676;5.808;2023-02-20T02:52:04;15.90;65.30
62583;DHT22;48641;51.676;5.808;2023-02-20T02:54:31;15.90;65.30
62583;DHT22;48641;51.676;5.808;2023-02-20T02:57:22;15.90;65.30
62583;DHT22;48641;51.676;5.808;2023-02-20T03:00:05;16.00;65.20
62583;DHT22;48641;51.676;5.808;2023-02-20T03:02:44;15.90;65.30
62583;DHT22;48641;51.676;5.808;2023-02-20T03:05:14;15.90;65.30
62583;DHT22;48641;51.676;5.808;2023-02-20T03:07:44;15.90;65.20
62583;DHT22;48641;51.676;5.808;2023-02-20T03:10:15;15.90;65.20
62583;DHT22;48641;51.676;5.808;2023-02-20T03:12:47;15.90;65.20
62583;DHT22;48641;51.676;5.808;2023-02-20T03:15:26;15.90;65.20
62583;DHT22;48641;51.676;5.808;2023-02-20T03:18:34;15.90;65.20
62583;DHT22;48641;51.676;5.808;2023-02-20T03:21:13;15.90;65.10
62583;DHT22;48641;51.676;5.808;2023-02-20T03:23:43;15.80;65.20
62583;DHT22;48641;51.676;5.808;2023-02-20T03:26:15;15.80;65.20
62583;DHT22;48641;51.676;5.808;2023-02-20T03:28:51;15.80;65.20
62583;DHT22;48641;51.676;5.808;2023-02-20T03:31:26;15.80;65.20
62583;DHT22;48641;51.676;5.808;2023-02-20T03:33:58;15.80;65.20
62583;DHT22;48641;51.676;5.808;2023-02-20T03:36:54;15.80;65.20
62583;DHT22;48641;51.676;5.808;2023-02-20T03:39:44;15.80;65.20
62583;DHT22;48641;51.676;5.808;2023-02-20T03:42:32;15.80;66.20
62583;DHT22;48641;51.676;5.808;2023-02-20T03:45:19;15.80;65.30
62583;DHT22;48641;51.676;5.808;2023-02-20T03:47:50;15.80;65.30
62583;DHT22;48641;51.676;5.808;2023-02-20T03:50:18;15.80;65.20
62583;DHT22;48641;51.676;5.808;2023-02-20T03:52:44;15.80;65.20
62583;DHT22;48641;51.676;5.808;2023-02-20T03:55:10;15.80;65.20
62583;DHT22;48641;51.676;5.808;2023-02-20T03:57:40;15.90;66.10
62583;DHT22;48641;51.676;5.808;2023-02-20T04:00:30;15.90;65.20
62583;DHT22;48641;51.676;5.808;2023-02-20T04:02:59;15.90;65.10
62583;DHT22;48641;51.676;5.808;2023-02-20T04:05:30;15.90;65.10
62583;DHT22;48641;51.676;5.808;2023-02-20T04:08:04;15.90;65.10
62583;DHT22;48641;51.676;5.808;2023-02-20T04:10:36;15.90;65.10
62583;DHT22;48641;51.676;5.808;2023-02-20T04:13:04;15.90;65.00
62583;DHT22;48641;51.676;5.808;2023-02-20T04:15:30;15.90;65.00
62583;DHT22;48641;51.676;5.808;2023-02-20T04:18:17;15.90;65.00
62583;DHT22;48641;51.676;5.808;2023-02-20T04:20:47;15.90;64.80
62583;DHT22;48641;51.676;5.808;2023-02-20T04:23:16;15.90;65.00
62583;DHT22;48641;51.676;5.808;2023-02-20T04:25:53;15.90;65.00
62583;DHT22;48641;51.676;5.808;2023-02-20T04:28:20;15.90;65.00
62583;DHT22;48641;51.676;5.808;2023-02-20T04:30:46;15.90;65.00
62583;DHT22;48641;51.676;5.808;2023-02-20T04:33:13;15.90;64.90
62583;DHT22;48641;51.676;5.808;2023-02-20T04:35:39;15.90;64.90
62583;DHT22;48641;51.676;5.808;2023-02-20T04:38:06;15.90;64.90
62583;DHT22;48641;51.676;5.808;2023-02-20T04:40:32;15.90;64.90
62583;DHT22;48641;51.676;5.808;2023-02-20T04:42:58;15.80;64.90
62583;DHT22;48641;51.676;5.808;2023-02-20T04:45:23;15.80;64.90
62583;DHT22;48641;51.676;5.808;2023-02-20T04:47:49;15.80;64.90
62583;DHT22;48641;51.676;5.808;2023-02-20T04:50:24;15.80;64.90
62583;DHT22;48641;51.676;5.808;2023-02-20T04:52:50;15.80;64.90
62583;DHT22;48641;51.676;5.808;2023-02-20T04:55:16;15.80;64.90
62583;DHT22;48641;51.676;5.808;2023-02-20T04:57:42;15.80;65.00
62583;DHT22;48641;51.676;5.808;2023-02-20T05:00:09;15.80;65.00
62583;DHT22;48641;51.676;5.808;2023-02-20T05:02:36;15.80;64.90
62583;DHT22;48641;51.676;5.808;2023-02-20T05:05:02;15.80;64.90
62583;DHT22;48641;51.676;5.808;2023-02-20T05:07:28;15.80;64.90
62583;DHT22;48641;51.676;5.808;2023-02-20T05:09:54;15.80;64.90
62583;DHT22;48641;51.676;5.808;2023-02-20T05:12:19;15.90;64.90
62583;DHT22;48641;51.676;5.808;2023-02-20T05:14:45;15.80;64.80
62583;DHT22;48641;51.676;5.808;2023-02-20T05:17:10;15.90;64.90
62583;DHT22;48641;51.676;5.808;2023-02-20T05:19:36;15.90;64.80
62583;DHT22;48641;51.676;5.808;2023-02-20T05:22:02;15.90;64.80
62583;DHT22;48641;51.676;5.808;2023-02-20T05:24:47;15.90;64.80
62583;DHT22;48641;51.676;5.808;2023-02-20T05:27:15;15.90;64.80
62583;DHT22;48641;51.676;5.808;2023-02-20T05:32:11;15.90;64.80
62583;DHT22;48641;51.676;5.808;2023-02-20T05:34:36;15.90;64.80
62583;DHT22;48641;51.676;5.808;2023-02-20T05:37:02;15.90;64.80
62583;DHT22;48641;51.676;5.808;2023-02-20T05:39:27;15.90;64.80
62583;DHT22;48641;51.676;5.808;2023-02-20T05:41:53;15.90;64.80
62583;DHT22;48641;51.676;5.808;2023-02-20T05:44:18;15.90;64.90
62583;DHT22;48641;51.676;5.808;2023-02-20T05:46:44;15.90;64.80
62583;DHT22;48641;51.676;5.808;2023-02-20T05:49:10;15.80;64.80
62583;DHT22;48641;51.676;5.808;2023-02-20T05:51:37;15.90;64.80
62583;DHT22;48641;51.676;5.808;2023-02-20T05:54:03;15.90;64.80
62583;DHT22;48641;51.676;5.808;2023-02-20T05:56:29;15.90;64.80
62583;DHT22;48641;51.676;5.808;2023-02-20T05:58:54;15.90;64.80
62583;DHT22;48641;51.676;5.808;2023-02-20T06:01:23;15.90;64.80
62583;DHT22;48641;51.676;5.808;2023-02-20T06:03:49;15.90;64.70
62583;DHT22;48641;51.676;5.808;2023-02-20T06:06:15;15.90;64.70
62583;DHT22;48641;51.676;5.808;2023-02-20T06:08:41;15.90;64.70
62583;DHT22;48641;51.676;5.808;2023-02-20T06:11:09;15.90;64.70
62583;DHT22;48641;51.676;5.808;2023-02-20T06:13:36;15.90;64.70
62583;DHT22;48641;51.676;5.808;2023-02-20T06:16:03;15.90;64.70
62583;DHT22;48641;51.676;5.808;2023-02-20T06:18:29;15.90;64.70
62583;DHT22;48641;51.676;5.808;2023-02-20T06:20:55;15.90;64.70
62583;DHT22;48641;51.676;5.808;2023-02-20T06:23:22;15.90;64.70
62583;DHT22;48641;51.676;5.808;2023-02-20T06:25:47;15.80;64.70
62583;DHT22;48641;51.676;5.808;2023-02-20T06:28:13;15.80;64.70
62583;DHT22;48641;51.676;5.808;2023-02-20T06:30:39;15.80;64.70
62583;DHT22;48641;51.676;5.808;2023-02-20T06:33:04;15.80;64.70
62583;DHT22;48641;51.676;5.808;2023-02-20T06:35:30;15.80;64.70
62583;DHT22;48641;51.676;5.808;2023-02-20T06:37:56;15.80;64.70
62583;DHT22;48641;51.676;5.808;2023-02-20T06:40:21;15.80;64.70
62583;DHT22;48641;51.676;5.808;2023-02-20T06:42:47;15.80;64.70
62583;DHT22;48641;51.676;5.808;2023-02-20T06:45:12;15.80;64.70
62583;DHT22;48641;51.676;5.808;2023-02-20T06:47:38;15.80;64.70
62583;DHT22;48641;51.676;5.808;2023-02-20T06:50:04;15.80;64.70
62583;DHT22;48641;51.676;5.808;2023-02-20T06:52:30;15.80;64.70
62583;DHT22;48641;51.676;5.808;2023-02-20T06:54:55;15.80;64.70
62583;DHT22;48641;51.676;5.808;2023-02-20T06:57:21;15.90;64.70
62583;DHT22;48641;51.676;5.808;2023-02-20T06:59:47;15.90;64.70
62583;DHT22;48641;51.676;5.808;2023-02-20T07:02:14;15.80;64.60
62583;DHT22;48641;51.676;5.808;2023-02-20T07:04:40;15.90;64.70
62583;DHT22;48641;51.676;5.808;2023-02-20T07:07:06;15.80;64.60
62583;DHT22;48641;51.676;5.808;2023-02-20T07:09:31;15.90;64.70
62583;DHT22;48641;51.676;5.808;2023-02-20T07:11:58;15.90;64.60
62583;DHT22;48641;51.676;5.808;2023-02-20T07:14:24;15.90;65.60
62583;DHT22;48641;51.676;5.808;2023-02-20T07:16:50;15.80;64.60
62583;DHT22;48641;51.676;5.808;2023-02-20T07:19:16;15.80;64.60
62583;DHT22;48641;51.676;5.808;2023-02-20T07:21:41;15.80;64.60
62583;DHT22;48641;51.676;5.808;2023-02-20T07:24:07;15.80;64.50
62583;DHT22;48641;51.676;5.808;2023-02-20T07:26:33;15.80;64.60
62583;DHT22;48641;51.676;5.808;2023-02-20T07:29:01;15.80;64.60
62583;DHT22;48641;51.676;5.808;2023-02-20T07:31:27;15.80;64.60
62583;DHT22;48641;51.676;5.808;2023-02-20T07:33:53;15.80;64.70
62583;DHT22;48641;51.676;5.808;2023-02-20T07:36:18;15.80;64.70
62583;DHT22;48641;51.676;5.808;2023-02-20T07:38:53;15.80;64.70
62583;DHT22;48641;51.676;5.808;2023-02-20T07:41:19;15.80;64.70
62583;DHT22;48641;51.676;5.808;2023-02-20T07:43:44;15.80;64.70
62583;DHT22;48641;51.676;5.808;2023-02-20T07:46:10;15.80;64.70
62583;DHT22;48641;51.676;5.808;2023-02-20T07:48:35;15.80;64.70
62583;DHT22;48641;51.676;5.808;2023-02-20T07:51:01;15.80;64.70
62583;DHT22;48641;51.676;5.808;2023-02-20T07:53:27;15.80;64.70
62583;DHT22;48641;51.676;5.808;2023-02-20T07:55:53;15.90;64.70
62583;DHT22;48641;51.676;5.808;2023-02-20T07:58:18;15.90;64.60
62583;DHT22;48641;51.676;5.808;2023-02-20T08:00:44;15.80;64.60
62583;DHT22;48641;51.676;5.808;2023-02-20T08:03:10;15.90;64.60
62583;DHT22;48641;51.676;5.808;2023-02-20T08:05:35;15.90;64.70
62583;DHT22;48641;51.676;5.808;2023-02-20T08:08:01;15.90;64.60
62583;DHT22;48641;51.676;5.808;2023-02-20T08:10:27;15.90;64.70
62583;DHT22;48641;51.676;5.808;2023-02-20T08:12:54;15.90;64.60
62583;DHT22;48641;51.676;5.808;2023-02-20T08:15:20;15.80;64.50
62583;DHT22;48641;51.676;5.808;2023-02-20T08:17:47;15.80;64.60
62583;DHT22;48641;51.676;5.808;2023-02-20T08:20:15;15.80;64.50
62583;DHT22;48641;51.676;5.808;2023-02-20T08:22:42;15.80;64.50
62583;DHT22;48641;51.676;5.808;2023-02-20T08:25:07;15.80;64.50
62583;DHT22;48641;51.676;5.808;2023-02-20T08:27:33;15.80;65.50
62583;DHT22;48641;51.676;5.808;2023-02-20T08:30:04;15.80;64.50
62583;DHT22;48641;51.676;5.808;2023-02-20T08:32:30;15.80;64.50
62583;DHT22;48641;51.676;5.808;2023-02-20T08:34:56;15.80;64.60
62583;DHT22;48641;51.676;5.808;2023-02-20T08:37:21;15.80;64.60
62583;DHT22;48641;51.676;5.808;2023-02-20T08:39:47;15.80;64.60
62583;DHT22;48641;51.676;5.808;2023-02-20T08:42:16;15.80;64.50
62583;DHT22;48641;51.676;5.808;2023-02-20T08:44:42;15.80;64.50
62583;DHT22;48641;51.676;5.808;2023-02-20T08:47:07;15.80;64.70
62583;DHT22;48641;51.676;5.808;2023-02-20T08:49:33;15.80;64.50
62583;DHT22;48641;51.676;5.808;2023-02-20T08:51:59;15.80;65.20
62583;DHT22;48641;51.676;5.808;2023-02-20T08:54:24;15.80;64.60
62583;DHT22;48641;51.676;5.808;2023-02-20T08:56:50;15.80;65.60
62583;DHT22;48641;51.676;5.808;2023-02-20T08:59:16;15.80;64.50
62583;DHT22;48641;51.676;5.808;2023-02-20T09:01:42;15.90;64.70
62583;DHT22;48641;51.676;5.808;2023-02-20T09:04:09;15.90;64.60
62583;DHT22;48641;51.676;5.808;2023-02-20T09:06:35;15.90;64.50
62583;DHT22;48641;51.676;5.808;2023-02-20T09:09:01;15.90;64.60
62583;DHT22;48641;51.676;5.808;2023-02-20T09:11:27;15.90;64.50
62583;DHT22;48641;51.676;5.808;2023-02-20T09:13:52;15.80;64.60
62583;DHT22;48641;51.676;5.808;2023-02-20T09:16:21;15.90;64.60
62583;DHT22;48641;51.676;5.808;2023-02-20T09:18:47;15.90;64.50
62583;DHT22;48641;51.676;5.808;2023-02-20T09:21:15;15.80;64.60
62583;DHT22;48641;51.676;5.808;2023-02-20T09:23:41;15.80;64.50
62583;DHT22;48641;51.676;5.808;2023-02-20T09:26:07;15.80;65.50
62583;DHT22;48641;51.676;5.808;2023-02-20T09:28:33;15.80;64.50
62583;DHT22;48641;51.676;5.808;2023-02-20T09:30:58;15.80;64.50
62583;DHT22;48641;51.676;5.808;2023-02-20T09:33:26;15.80;64.50
62583;DHT22;48641;51.676;5.808;2023-02-20T09:35:52;15.80;64.50
62583;DHT22;48641;51.676;5.808;2023-02-20T09:38:20;15.80;65.50
62583;DHT22;48641;51.676;5.808;2023-02-20T09:40:48;15.80;64.50
62583;DHT22;48641;51.676;5.808;2023-02-20T09:43:23;15.80;64.50
62583;DHT22;48641;51.676;5.808;2023-02-20T09:51:16;15.70;64.60
62583;DHT22;48641;51.676;5.808;2023-02-20T09:54:17;15.70;64.60
62583;DHT22;48641;51.676;5.808;2023-02-20T09:56:50;15.70;64.50
62583;DHT22;48641;51.676;5.808;2023-02-20T09:59:37;15.70;64.70
62583;DHT22;48641;51.676;5.808;2023-02-20T10:02:26;15.70;64.70
62583;DHT22;48641;51.676;5.808;2023-02-20T10:04:57;15.70;64.80
62583;DHT22;48641;51.676;5.808;2023-02-20T10:07:37;15.70;64.80
62583;DHT22;48641;51.676;5.808;2023-02-20T10:15:44;15.70;64.70
62583;DHT22;48641;51.676;5.808;2023-02-20T10:23:46;15.70;64.80
62583;DHT22;48641;51.676;5.808;2023-02-20T10:26:22;15.70;64.70
62583;DHT22;48641;51.676;5.808;2023-02-20T10:28:51;15.70;64.80
62583;DHT22;48641;51.676;5.808;2023-02-20T10:34:17;15.70;64.70
62583;DHT22;48641;51.676;5.808;2023-02-20T10:36:50;15.70;64.80
62583;DHT22;48641;51.676;5.808;2023-02-20T10:39:20;15.70;64.90
62583;DHT22;48641;51.676;5.808;2023-02-20T10:42:06;15.70;64.80
62583;DHT22;48641;51.676;5.808;2023-02-20T10:44:54;15.80;64.80
62583;DHT22;48641;51.676;5.808;2023-02-20T10:47:49;15.70;64.80
62583;DHT22;48641;51.676;5.808;2023-02-20T10:50:28;15.80;64.90
62583;DHT22;48641;51.676;5.808;2023-02-20T10:55:41;15.70;65.00
62583;DHT22;48641;51.676;5.808;2023-02-20T10:58:20;15.70;64.90
62583;DHT22;48641;51.676;5.808;2023-02-20T11:00:54;15.70;64.80
62583;DHT22;48641;51.676;5.808;2023-02-20T11:03:26;15.70;64.80
62583;DHT22;48641;51.676;5.808;2023-02-20T11:05:56;15.70;64.90
62583;DHT22;48641;51.676;5.808;2023-02-20T11:08:23;15.70;64.90
62583;DHT22;48641;51.676;5.808;2023-02-20T11:10:53;15.70;64.80
62583;DHT22;48641;51.676;5.808;2023-02-20T11:13:23;15.70;64.80
62583;DHT22;48641;51.676;5.808;2023-02-20T11:15:52;15.70;64.80
62583;DHT22;48641;51.676;5.808;2023-02-20T11:18:34;15.80;64.80
62583;DHT22;48641;51.676;5.808;2023-02-20T11:21:02;15.80;64.70
62583;DHT22;48641;51.676;5.808;2023-02-20T11:23:42;15.70;64.80
62583;DHT22;48641;51.676;5.808;2023-02-20T11:26:27;15.80;64.80
62583;DHT22;48641;51.676;5.808;2023-02-20T11:29:14;15.80;64.80
62583;DHT22;48641;51.676;5.808;2023-02-20T11:31:42;15.80;64.70
62583;DHT22;48641;51.676;5.808;2023-02-20T11:34:18;15.80;64.90
62583;DHT22;48641;51.676;5.808;2023-02-20T11:36:52;15.80;64.70
62583;DHT22;48641;51.676;5.808;2023-02-20T11:39:27;15.70;64.80
62583;DHT22;48641;51.676;5.808;2023-02-20T11:42:15;15.80;64.80
62583;DHT22;48641;51.676;5.808;2023-02-20T11:44:43;15.80;64.60
62583;DHT22;48641;51.676;5.808;2023-02-20T11:47:21;15.70;64.80
62583;DHT22;48641;51.676;5.808;2023-02-20T11:49:48;15.80;64.90
62583;DHT22;48641;51.676;5.808;2023-02-20T11:52:19;15.80;64.80
62583;DHT22;48641;51.676;5.808;2023-02-20T11:54:46;15.70;65.10
62583;DHT22;48641;51.676;5.808;2023-02-20T11:57:26;15.70;64.50
62583;DHT22;48641;51.676;5.808;2023-02-20T12:00:13;15.80;64.60
62583;DHT22;48641;51.676;5.808;2023-02-20T12:03:02;15.80;64.60
62583;DHT22;48641;51.676;5.808;2023-02-20T12:05:38;15.90;64.70
62583;DHT22;48641;51.676;5.808;2023-02-20T12:08:26;15.90;64.70
62583;DHT22;48641;51.676;5.808;2023-02-20T12:10:56;15.90;64.60
62583;DHT22;48641;51.676;5.808;2023-02-20T12:13:25;15.90;64.70
62583;DHT22;48641;51.676;5.808;2023-02-20T12:16:00;15.90;64.70
62583;DHT22;48641;51.676;5.808;2023-02-20T12:19:06;15.90;64.60
62583;DHT22;48641;51.676;5.808;2023-02-20T12:27:45;16.00;64.60
62583;DHT22;48641;51.676;5.808;2023-02-20T12:30:26;16.00;64.60
62583;DHT22;48641;51.676;5.808;2023-02-20T12:32:57;15.90;64.70
62583;DHT22;48641;51.676;5.808;2023-02-20T12:35:32;15.90;64.70
62583;DHT22;48641;51.676;5.808;2023-02-20T12:46:22;15.90;64.70
62583;DHT22;48641;51.676;5.808;2023-02-20T12:54:27;15.90;64.80
62583;DHT22;48641;51.676;5.808;2023-02-20T12:57:39;15.90;64.90
62583;DHT22;48641;51.676;5.808;2023-02-20T13:00:21;15.90;64.70
62583;DHT22;48641;51.676;5.808;2023-02-20T13:02:50;15.90;64.80
62583;DHT22;48641;51.676;5.808;2023-02-20T13:05:22;15.90;64.90
62583;DHT22;48641;51.676;5.808;2023-02-20T13:08:17;15.90;64.90
62583;DHT22;48641;51.676;5.808;2023-02-20T13:10:55;16.00;64.70
62583;DHT22;48641;51.676;5.808;2023-02-20T13:13:22;16.00;64.80
62583;DHT22;48641;51.676;5.808;2023-02-20T13:20:49;16.00;64.70
62583;DHT22;48641;51.676;5.808;2023-02-20T13:25:47;16.00;64.70
62583;DHT22;48641;51.676;5.808;2023-02-20T13:30:39;16.00;64.60
62583;DHT22;48641;51.676;5.808;2023-02-20T13:33:29;16.10;64.70
62583;DHT22;48641;51.676;5.808;2023-02-20T13:35:58;16.10;64.60
62583;DHT22;48641;51.676;5.808;2023-02-20T13:38:28;16.10;64.60
62583;DHT22;48641;51.676;5.808;2023-02-20T13:43:31;16.10;64.70
62583;DHT22;48641;51.676;5.808;2023-02-20T13:48:37;16.10;64.60
62583;DHT22;48641;51.676;5.808;2023-02-20T13:53:59;16.10;64.60
62583;DHT22;48641;51.676;5.808;2023-02-20T13:59:11;16.10;64.50
62583;DHT22;48641;51.676;5.808;2023-02-20T14:01:56;16.10;64.60
62583;DHT22;48641;51.676;5.808;2023-02-20T14:04:22;16.10;64.50
62583;DHT22;48641;51.676;5.808;2023-02-20T14:06:49;16.00;64.70
62583;DHT22;48641;51.676;5.808;2023-02-20T14:09:19;16.00;64.70
62583;DHT22;48641;51.676;5.808;2023-02-20T14:11:46;16.10;64.70
62583;DHT22;48641;51.676;5.808;2023-02-20T14:14:42;16.10;64.70
62583;DHT22;48641;51.676;5.808;2023-02-20T14:17:17;16.10;64.50
62583;DHT22;48641;51.676;5.808;2023-02-20T14:19:47;16.10;64.50
62583;DHT22;48641;51.676;5.808;2023-02-20T14:24:59;16.10;64.50
62583;DHT22;48641;51.676;5.808;2023-02-20T14:27:27;16.10;64.60
62583;DHT22;48641;51.676;5.808;2023-02-20T14:30:13;16.10;64.60
62583;DHT22;48641;51.676;5.808;2023-02-20T14:33:25;16.10;64.40
62583;DHT22;48641;51.676;5.808;2023-02-20T14:41:20;16.10;64.50
62583;DHT22;48641;51.676;5.808;2023-02-20T14:44:00;16.00;64.40
62583;DHT22;48641;51.676;5.808;2023-02-20T14:46:31;16.10;64.30
62583;DHT22;48641;51.676;5.808;2023-02-20T14:49:15;16.10;64.40
62583;DHT22;48641;51.676;5.808;2023-02-20T14:51:41;16.10;64.40
62583;DHT22;48641;51.676;5.808;2023-02-20T14:56:39;16.00;64.40
62583;DHT22;48641;51.676;5.808;2023-02-20T14:59:30;16.00;64.40
62583;DHT22;48641;51.676;5.808;2023-02-20T15:02:21;16.00;64.30
62583;DHT22;48641;51.676;5.808;2023-02-20T15:04:49;16.00;64.30
62583;DHT22;48641;51.676;5.808;2023-02-20T15:07:22;16.00;64.50
62583;DHT22;48641;51.676;5.808;2023-02-20T15:09:53;16.00;64.60
62583;DHT22;48641;51.676;5.808;2023-02-20T15:12:26;16.00;64.40
62583;DHT22;48641;51.676;5.808;2023-02-20T15:14:58;15.90;64.40
62583;DHT22;48641;51.676;5.808;2023-02-20T15:17:39;15.90;64.40
62583;DHT22;48641;51.676;5.808;2023-02-20T15:20:19;15.90;64.30
62583;DHT22;48641;51.676;5.808;2023-02-20T15:22:45;15.90;64.40
62583;DHT22;48641;51.676;5.808;2023-02-20T15:25:29;15.90;64.50
62583;DHT22;48641;51.676;5.808;2023-02-20T15:33:41;15.80;64.50
62583;DHT22;48641;51.676;5.808;2023-02-20T15:36:12;15.80;64.50
62583;DHT22;48641;51.676;5.808;2023-02-20T15:38:39;15.80;64.60
62583;DHT22;48641;51.676;5.808;2023-02-20T15:41:06;15.80;64.50
62583;DHT22;48641;51.676;5.808;2023-02-20T15:43:32;15.80;64.60
62583;DHT22;48641;51.676;5.808;2023-02-20T15:45:58;15.80;64.60
62583;DHT22;48641;51.676;5.808;2023-02-20T15:48:24;15.80;64.60
62583;DHT22;48641;51.676;5.808;2023-02-20T15:50:50;15.80;64.50
62583;DHT22;48641;51.676;5.808;2023-02-20T15:53:29;15.80;64.50
62583;DHT22;48641;51.676;5.808;2023-02-20T15:55:58;15.80;64.50
62583;DHT22;48641;51.676;5.808;2023-02-20T15:58:45;15.70;64.50
62583;DHT22;48641;51.676;5.808;2023-02-20T16:01:11;15.70;64.50
62583;DHT22;48641;51.676;5.808;2023-02-20T16:03:37;15.70;64.60
62583;DHT22;48641;51.676;5.808;2023-02-20T16:06:02;15.70;64.60
62583;DHT22;48641;51.676;5.808;2023-02-20T16:08:28;15.70;64.50
62583;DHT22;48641;51.676;5.808;2023-02-20T16:10:55;15.70;64.60
62583;DHT22;48641;51.676;5.808;2023-02-20T16:13:27;15.70;64.60
62583;DHT22;48641;51.676;5.808;2023-02-20T16:15:53;15.70;64.60
62583;DHT22;48641;51.676;5.808;2023-02-20T16:18:19;15.70;64.60
62583;DHT22;48641;51.676;5.808;2023-02-20T16:20:45;15.70;64.60
62583;DHT22;48641;51.676;5.808;2023-02-20T16:23:11;15.70;64.60
62583;DHT22;48641;51.676;5.808;2023-02-20T16:25:37;15.60;64.60
62583;DHT22;48641;51.676;5.808;2023-02-20T16:28:03;15.60;64.60
62583;DHT22;48641;51.676;5.808;2023-02-20T16:30:34;15.60;65.60
62583;DHT22;48641;51.676;5.808;2023-02-20T16:33:11;15.60;64.70
62583;DHT22;48641;51.676;5.808;2023-02-20T16:35:38;15.60;64.90
62583;DHT22;48641;51.676;5.808;2023-02-20T16:38:04;15.60;64.80
62583;DHT22;48641;51.676;5.808;2023-02-20T16:40:30;15.60;64.80
62583;DHT22;48641;51.676;5.808;2023-02-20T16:42:55;15.60;64.80
62583;DHT22;48641;51.676;5.808;2023-02-20T16:45:21;15.60;64.80
62583;DHT22;48641;51.676;5.808;2023-02-20T16:47:49;15.60;64.80
62583;DHT22;48641;51.676;5.808;2023-02-20T16:50:17;15.60;64.80
62583;DHT22;48641;51.676;5.808;2023-02-20T16:52:45;15.60;64.80
62583;DHT22;48641;51.676;5.808;2023-02-20T16:55:36;15.60;64.80
62583;DHT22;48641;51.676;5.808;2023-02-20T16:58:02;15.60;64.70
62583;DHT22;48641;51.676;5.808;2023-02-20T17:00:33;15.50;64.90
62583;DHT22;48641;51.676;5.808;2023-02-20T17:03:00;15.60;64.80
62583;DHT22;48641;51.676;5.808;2023-02-20T17:05:28;15.50;64.80
62583;DHT22;48641;51.676;5.808;2023-02-20T17:07:55;15.50;64.80
62583;DHT22;48641;51.676;5.808;2023-02-20T17:10:21;15.50;64.90
62583;DHT22;48641;51.676;5.808;2023-02-20T17:12:47;15.50;64.90
62583;DHT22;48641;51.676;5.808;2023-02-20T17:15:15;15.50;64.90
62583;DHT22;48641;51.676;5.808;2023-02-20T17:17:41;15.50;64.90
62583;DHT22;48641;51.676;5.808;2023-02-20T17:20:11;15.50;64.80
62583;DHT22;48641;51.676;5.808;2023-02-20T17:22:37;15.50;64.90
62583;DHT22;48641;51.676;5.808;2023-02-20T17:25:04;15.50;64.90
62583;DHT22;48641;51.676;5.808;2023-02-20T17:27:29;15.50;64.80
62583;DHT22;48641;51.676;5.808;2023-02-20T17:29:55;15.50;65.80
62583;DHT22;48641;51.676;5.808;2023-02-20T17:32:22;15.50;64.80
62583;DHT22;48641;51.676;5.808;2023-02-20T17:34:48;15.50;65.00